Time;durP1;ratioP1;P1;durP2;ratioP2;P2;SDS_P1;SDS_P2;PMS_P1;PMS_P2;Temp;Humidity;BMP_temperature;BMP_pressure;BME280_temperature;BME280_humidity;BME280_pressure;Samples;Min_cycle;Max_cycle;Signal;HPM_P1;HPM_P2
2022/01/03 05:52:20;;;;;;;8.00;1.70;;;;;;;10.01;67.99;100601.47;6138286;22;1527717;-81
2022/01/03 05:55:25;;;;;;;9.50;1.42;;;;;;;9.97;67.87;100599.94;6215914;23;20067;-80
2022/01/03 05:58:28;;;;;;;7.80;1.27;;;;;;;9.97;68.09;100605.19;6232724;23;20015;-81
2022/01/03 06:01:31;;;;;;;9.00;1.45;;;;;;;9.99;68.17;100595.50;6235260;23;20027;-81
2022/01/03 06:07:45;;;;;;;7.15;1.83;;;;;;;9.98;68.30;100591.19;6242168;22;20027;-77
2022/01/03 06:11:28;;;;;;;10.20;2.03;;;;;;;9.93;68.80;100580.13;6234465;22;20082;-77
2022/01/03 06:14:32;;;;;;;10.43;1.77;;;;;;;9.94;68.97;100592.25;6237993;23;20027;-77
2022/01/03 06:17:36;;;;;;;9.68;1.77;;;;;;;9.90;69.26;100588.13;6238005;23;20103;-78
2022/01/03 06:20:42;;;;;;;9.85;1.58;;;;;;;9.91;69.18;100589.78;6240045;23;20027;-78
2022/01/03 06:23:46;;;;;;;15.63;3.58;;;;;;;9.93;69.46;100605.41;6238530;23;20022;-78
2022/01/03 06:26:51;;;;;;;8.85;1.83;;;;;;;9.89;69.66;100575.97;6221083;23;20078;-78
2022/01/03 06:29:55;;;;;;;7.63;1.83;;;;;;;9.85;69.74;100578.81;6221732;23;20031;-78
2022/01/03 06:32:58;;;;;;;8.32;2.33;;;;;;;9.81;70.03;100578.09;6239115;23;20063;-78
2022/01/03 06:36:02;;;;;;;11.90;3.78;;;;;;;9.81;70.46;100579.88;6240570;23;20023;-78
2022/01/03 06:39:07;;;;;;;9.63;1.83;;;;;;;9.88;70.39;100576.03;6239145;23;20065;-78
2022/01/03 06:42:11;;;;;;;10.40;2.35;;;;;;;9.74;71.35;100577.56;6238427;23;20026;-78
2022/01/03 06:45:16;;;;;;;7.35;1.80;;;;;;;9.70;71.70;100594.31;6237134;23;20054;-78
2022/01/03 06:48:20;;;;;;;9.93;2.05;;;;;;;9.73;71.81;100591.53;6238596;23;20023;-79
2022/01/03 06:51:23;;;;;;;7.88;1.77;;;;;;;9.61;71.83;100580.84;6237194;23;20054;-79
2022/01/03 06:54:26;;;;;;;;;;;;;;;9.68;71.79;100577.00;6238899;23;20031;-78
2022/01/03 06:57:34;;;;;;;8.82;2.17;;;;;;;9.77;71.79;100584.41;6221027;23;20342;-78
2022/01/03 07:00:37;;;;;;;;;;;;;;;9.76;71.94;100575.72;6236610;23;20527;-77
2022/01/03 07:03:41;;;;;;;9.98;3.05;;;;;;;9.84;71.82;100580.56;6236420;23;20021;-78
2022/01/03 07:06:45;;;;;;;8.18;2.38;;;;;;;9.89;71.66;100569.88;6217496;23;20433;-78
2022/01/03 07:09:48;;;;;;;11.65;1.90;;;;;;;9.87;71.83;100569.97;6206758;23;20524;-78
2022/01/03 07:12:53;;;;;;;;;;;;;;;9.86;72.01;100565.69;6190278;23;20100;-79
2022/01/03 07:19:18;;;;;;;12.27;4.03;;;;;;;9.96;72.09;100566.91;6190377;23;20397;-78
2022/01/03 07:22:23;;;;;;;8.30;1.88;;;;;;;9.74;72.75;100567.13;6206597;23;20031;-78
2022/01/03 07:25:26;;;;;;;10.02;2.78;;;;;;;9.73;73.28;100569.78;6188224;23;20399;-78
2022/01/03 07:28:29;;;;;;;;;;;;;;;9.61;73.89;100573.84;6208652;23;20027;-78
2022/01/03 07:31:33;;;;;;;10.50;2.07;;;;;;;9.54;73.79;100583.72;6206416;23;19919;-78
2022/01/03 07:34:36;;;;;;;11.18;2.63;;;;;;;9.63;74.02;100584.19;6206082;23;20480;-78
2022/01/03 07:37:40;;;;;;;11.18;3.00;;;;;;;9.69;73.87;100581.31;6208497;23;20054;-78
2022/01/03 07:40:43;;;;;;;10.15;2.33;;;;;;;9.82;72.97;100589.41;6208767;23;20079;-78
2022/01/03 07:43:47;;;;;;;17.00;3.30;;;;;;;9.91;72.63;100581.97;6189911;23;20078;-78
2022/01/03 07:46:50;;;;;;;9.20;2.00;;;;;;;9.81;72.86;100567.66;6209309;23;20024;-78
2022/01/03 07:49:53;;;;;;;;;;;;;;;9.83;72.68;100578.91;6209405;23;20058;-78
2022/01/03 07:53:00;;;;;;;12.40;3.70;;;;;;;9.88;72.75;100562.97;6208802;23;19963;-77
2022/01/03 07:56:06;;;;;;;13.20;4.00;;;;;;;9.91;72.46;100563.69;6208807;23;20259;-78
2022/01/03 07:59:10;;;;;;;9.07;2.65;;;;;;;9.84;72.92;100562.28;6208795;23;20027;-78
2022/01/03 08:02:13;;;;;;;14.60;2.70;;;;;;;9.89;72.71;100559.44;6208195;23;20031;-78
2022/01/03 08:05:16;;;;;;;;;;;;;;;9.97;72.35;100568.59;6191593;23;20148;-78
2022/01/03 08:08:20;;;;;;;12.52;3.53;;;;;;;9.93;72.52;100559.22;6209376;23;19919;-78
2022/01/03 08:11:23;;;;;;;14.68;2.85;;;;;;;10.01;72.18;100564.06;6209373;23;20035;-78
2022/01/03 08:14:26;;;;;;;13.52;3.03;;;;;;;10.07;71.58;100557.69;6207712;23;20027;-77
2022/01/03 08:17:30;;;;;;;;;;;;;;;10.10;71.70;100573.22;6208123;23;20059;-78
2022/01/03 08:20:33;;;;;;;9.32;2.17;;;;;;;10.05;72.16;100557.78;6189024;23;19914;-78
2022/01/03 08:23:36;;;;;;;12.32;3.20;;;;;;;10.10;71.46;100562.78;6208607;23;20023;-78
2022/01/03 08:26:40;;;;;;;;;;;;;;;10.12;72.04;100553.09;6209998;23;20477;-77
2022/01/03 08:29:43;;;;;;;16.55;3.53;;;;;;;10.15;71.17;100561.63;6208762;23;19973;-77
2022/01/03 08:32:46;;;;;;;12.05;2.63;;;;;;;10.12;71.24;100560.94;6207015;23;20023;-78
2022/01/03 08:35:49;;;;;;;14.80;4.35;;;;;;;10.18;71.25;100555.41;6208495;23;20569;-78
2022/01/03 08:38:53;;;;;;;;;;;;;;;10.18;70.70;100563.25;6208780;23;20023;-77
2022/01/03 08:41:56;;;;;;;11.20;2.92;;;;;;;10.20;70.59;100561.38;6209311;23;19958;-77
2022/01/03 08:45:03;;;;;;;14.13;2.72;;;;;;;10.18;70.88;100555.41;6209324;23;20055;-77
2022/01/03 08:48:06;;;;;;;11.07;2.55;;;;;;;10.16;70.89;100552.03;6208785;23;20093;-78
2022/01/03 08:51:11;;;;;;;17.27;5.90;;;;;;;10.17;70.92;100546.72;6208529;23;20055;-78
2022/01/03 08:54:14;;;;;;;;;;;;;;;10.20;70.81;100556.16;6208732;23;20187;-77
2022/01/03 08:57:18;;;;;;;28.50;11.23;;;;;;;10.16;70.85;100547.63;6208087;23;19915;-78
2022/01/03 09:00:21;;;;;;;16.35;4.25;;;;;;;10.20;70.62;100548.31;6206975;23;20027;-78
2022/01/03 09:03:24;;;;;;;18.30;5.63;;;;;;;10.19;70.50;100557.09;6208700;23;20023;-78
2022/01/03 09:06:28;;;;;;;16.27;3.53;;;;;;;10.16;70.71;100554.63;6209434;23;20166;-78
2022/01/03 09:09:32;;;;;;;21.20;6.45;;;;;;;10.17;70.78;100556.31;6208517;23;20096;-79
2022/01/03 09:12:35;;;;;;;13.68;3.30;;;;;;;10.16;70.85;100550.25;6209157;23;20027;-77
2022/01/03 09:15:40;;;;;;;;;;;;;;;10.20;70.64;100549.16;6207633;23;20028;-78
2022/01/03 09:18:44;;;;;;;18.25;4.00;;;;;;;10.25;70.57;100539.34;6189800;23;19966;-78
2022/01/03 09:21:47;;;;;;;18.75;4.05;;;;;;;10.26;70.72;100537.59;6208521;23;20023;-78
2022/01/03 09:28:48;;;;;;;15.98;3.17;;;;;;;10.28;70.62;100535.75;6190975;23;20027;-78
2022/01/03 09:31:39;;;;;;;14.70;3.75;;;;;;;10.30;70.66;100533.91;6207954;23;20150;-78
2022/01/03 09:34:42;;;;;;;13.07;2.80;;;;;;;10.31;70.42;100540.84;6208331;23;20516;-78
2022/01/03 09:37:46;;;;;;;16.73;3.15;;;;;;;10.34;70.58;100545.91;6207893;23;20032;-78
2022/01/03 09:40:52;;;;;;;;;;;;;;;10.36;70.78;100546.66;6208925;23;20375;-79
2022/01/03 09:44:04;;;;;;;21.75;7.28;;;;;;;10.43;70.01;100534.13;6205900;23;19915;-79
2022/01/03 09:47:18;;;;;;;31.93;14.43;;;;;;;10.42;70.37;100522.81;6207815;23;20094;-78
2022/01/03 09:50:23;;;;;;;29.95;12.40;;;;;;;10.43;70.26;100540.22;6202822;23;20247;-78
2022/01/03 09:53:32;;;;;;;13.80;4.82;;;;;;;10.42;69.99;100527.22;6206554;23;20079;-79
2022/01/03 09:56:40;;;;;;;17.85;6.22;;;;;;;10.47;70.13;100528.66;6187952;23;20024;-79
2022/01/03 09:59:43;;;;;;;32.53;16.73;;;;;;;10.54;69.53;100536.19;6207741;23;20030;-79
2022/01/03 10:02:46;;;;;;;20.15;7.50;;;;;;;10.54;69.59;100541.41;6207559;23;20023;-79
2022/01/03 10:05:50;;;;;;;15.85;8.38;;;;;;;10.56;69.54;100531.72;6208295;23;20027;-78
2022/01/03 10:08:54;;;;;;;15.02;6.80;;;;;;;10.56;69.16;100550.88;6208145;23;20030;-78
2022/01/03 10:11:58;;;;;;;18.02;4.38;;;;;;;10.54;68.88;100531.81;6206430;23;20032;-78
2022/01/03 10:15:04;;;;;;;14.15;4.18;;;;;;;10.56;69.01;100516.03;6207080;23;20036;-78
2022/01/03 10:18:19;;;;;;;16.33;3.78;;;;;;;10.54;69.36;100525.75;6188076;23;20023;-79
2022/01/03 10:21:55;;;;;;;11.68;2.58;;;;;;;10.52;69.13;100544.09;6188218;23;20108;-78
2022/01/03 10:25:01;;;;;;;17.45;3.35;;;;;;;10.56;68.83;100523.88;6171038;23;20504;-78
2022/01/03 10:28:05;;;;;;;13.45;3.05;;;;;;;10.53;69.67;100530.13;6188381;23;20023;-79
2022/01/03 10:31:15;;;;;;;12.77;2.70;;;;;;;10.47;70.51;100523.44;6207222;23;20027;-78
2022/01/03 10:34:23;;;;;;;14.73;2.92;;;;;;;10.43;71.16;100516.69;6206868;23;20357;-78
2022/01/03 10:37:36;;;;;;;17.63;3.50;;;;;;;10.37;71.89;100511.78;6207460;23;20473;-79
2022/01/03 10:40:40;;;;;;;14.70;4.25;;;;;;;10.36;73.47;100514.44;6186275;23;20357;-79
2022/01/03 10:43:52;;;;;;;9.30;2.08;;;;;;;10.31;74.32;100509.47;6204944;23;20027;-78
2022/01/03 10:46:55;;;;;;;15.27;5.30;;;;;;;10.30;75.44;100513.00;6207232;23;20072;-78
2022/01/03 10:49:59;;;;;;;15.02;3.90;;;;;;;10.28;75.95;100509.63;6207954;23;20027;-78
2022/01/03 10:53:02;;;;;;;;;;;;;;;10.29;76.61;100500.00;6207603;23;20036;-78
2022/01/03 10:56:26;;;;;;;13.03;3.17;;;;;;;10.26;76.34;100493.19;6206272;23;19907;-78
2022/01/03 10:59:31;;;;;;;9.85;2.75;;;;;;;10.21;76.82;100502.97;6207494;23;20028;-78
2022/01/03 11:02:34;;;;;;;9.45;2.20;;;;;;;10.17;76.69;100511.91;6207744;23;20028;-78
2022/01/03 11:05:39;;;;;;;7.95;2.45;;;;;;;10.15;77.69;100498.94;6208042;23;20075;-78
2022/01/03 11:12:16;;;;;;;9.65;2.15;;;;;;;10.17;78.43;100480.53;6206356;23;20111;-79
2022/01/03 11:15:20;;;;;;;;;;;;;;;10.10;78.80;100487.00;6207106;23;20023;-78
2022/01/03 11:18:24;;;;;;;8.80;3.13;;;;;;;10.05;79.89;100476.81;6207000;23;19956;-79
2022/01/03 11:22:19;;;;;;;8.73;2.72;;;;;;;10.08;79.47;100475.78;6205656;23;20023;-78
2022/01/03 11:25:34;;;;;;;18.00;9.27;;;;;;;10.13;79.27;100474.63;6170671;23;20036;-78
2022/01/03 11:28:39;;;;;;;14.20;5.22;;;;;;;10.12;80.23;100483.41;6207125;23;20028;-78
2022/01/03 11:31:43;;;;;;;7.75;2.03;;;;;;;10.12;80.18;100475.56;6207639;23;20044;-78
2022/01/03 11:34:47;;;;;;;6.35;1.80;;;;;;;10.02;78.90;100479.56;6206060;23;20123;-78
2022/01/03 11:37:52;;;;;;;6.18;2.25;;;;;;;9.90;83.41;100469.75;6206717;23;20159;-78
2022/01/03 11:41:03;;;;;;;6.68;1.23;;;;;;;9.78;83.77;100468.59;6207711;23;20408;-78
2022/01/03 11:44:08;;;;;;;7.38;1.20;;;;;;;9.87;83.47;100462.91;6207187;23;20473;-79
2022/01/03 11:47:12;;;;;;;8.50;2.28;;;;;;;9.84;82.68;100476.13;6189474;23;20026;-78
2022/01/03 11:50:15;;;;;;;11.93;3.85;;;;;;;9.94;82.96;100451.22;6208477;23;20397;-77
2022/01/03 11:53:20;;;;;;;12.55;3.15;;;;;;;9.99;83.58;100441.38;6208069;23;20027;-77
2022/01/03 11:56:25;;;;;;;11.55;4.18;;;;;;;10.01;83.89;100444.75;6208493;23;20290;-78
2022/01/03 12:03:36;;;;;;;9.15;3.25;;;;;;;10.09;82.65;100436.53;6208130;23;20489;-78
2022/01/03 12:06:29;;;;;;;8.32;2.55;;;;;;;10.14;82.29;100420.59;6207315;23;20036;-78
2022/01/03 12:09:38;;;;;;;6.47;2.05;;;;;;;10.30;81.73;100416.28;6190176;23;20329;-79
2022/01/03 12:12:41;;;;;;;7.93;1.95;;;;;;;10.14;81.32;100410.16;6208972;23;20417;-78
2022/01/03 12:15:45;;;;;;;9.73;1.88;;;;;;;10.14;80.89;100412.78;6190694;23;20032;-78
2022/01/03 12:19:06;;;;;;;14.07;2.25;;;;;;;10.17;81.70;100407.38;6208881;23;20023;-78
2022/01/03 12:22:17;;;;;;;12.18;2.83;;;;;;;10.23;81.77;100397.44;6209584;23;20032;-78
2022/01/03 12:25:30;;;;;;;10.00;2.45;;;;;;;10.25;81.94;100400.00;6208679;23;20059;-78
2022/01/03 12:29:02;;;;;;;10.75;2.55;;;;;;;10.13;83.68;100384.97;6208994;23;20051;-74
2022/01/03 12:32:06;;;;;;;11.02;2.25;;;;;;;9.76;83.77;100379.88;6189874;23;20320;-74
2022/01/03 12:35:20;;;;;;;12.80;2.55;;;;;;;9.63;83.06;100368.34;6206216;23;20103;-74
2022/01/03 12:38:28;;;;;;;17.13;3.58;;;;;;;9.47;83.83;100372.66;6208198;23;20435;-74
2022/01/03 12:41:41;;;;;;;9.98;2.53;;;;;;;9.46;83.33;100373.59;6208294;23;20477;-74
2022/01/03 12:44:46;;;;;;;;;;;;;;;9.48;82.77;100362.16;6209526;23;20023;-74
2022/01/03 12:47:49;;;;;;;11.27;2.70;;;;;;;9.47;83.65;100349.19;6207461;23;19958;-74
2022/01/03 12:50:52;;;;;;;10.15;2.92;;;;;;;9.52;84.16;100348.03;6208395;23;20035;-74
2022/01/03 12:53:56;;;;;;;16.02;2.60;;;;;;;9.55;84.11;100350.50;6206903;23;20051;-75
2022/01/03 12:57:14;;;;;;;15.65;6.43;;;;;;;9.47;83.81;100339.56;6207643;23;20263;-74
2022/01/03 13:00:38;;;;;;;14.02;3.97;;;;;;;9.68;84.77;100339.41;6207900;23;20059;-74
2022/01/03 13:04:03;;;;;;;16.17;4.88;;;;;;;9.68;85.37;100339.41;6208803;23;20023;-74
2022/01/03 13:07:07;;;;;;;7.05;2.13;;;;;;;9.63;83.15;100323.13;6189491;23;20024;-75
2022/01/03 13:10:16;;;;;;;12.60;3.63;;;;;;;9.66;84.05;100320.38;6208093;23;20410;-74
2022/01/03 13:13:28;;;;;;;15.10;3.75;;;;;;;9.79;85.16;100305.75;6208961;23;20106;-74
2022/01/03 13:16:35;;;;;;;15.27;5.55;;;;;;;9.84;85.12;100308.97;6208286;23;20067;-74
2022/01/03 13:19:40;;;;;;;14.68;6.00;;;;;;;9.80;82.91;100306.63;6207591;23;20026;-73
2022/01/03 13:22:44;;;;;;;19.90;4.57;;;;;;;9.92;84.53;100298.97;6207355;23;20090;-73
2022/01/03 13:25:47;;;;;;;13.13;3.50;;;;;;;9.93;83.78;100303.28;6207608;23;20074;-74
2022/01/03 13:28:53;;;;;;;19.75;5.82;;;;;;;9.83;82.69;100299.47;6208302;23;20106;-74
2022/01/03 13:31:56;;;;;;;20.10;7.43;;;;;;;9.98;82.17;100285.56;6207893;23;20158;-74
2022/01/03 13:35:03;;;;;;;24.67;9.02;;;;;;;9.86;80.38;100267.97;6207695;23;20663;-74
2022/01/03 13:38:16;;;;;;;14.57;3.65;;;;;;;9.88;77.75;100271.31;6206704;23;20075;-74
2022/01/03 13:41:20;;;;;;;10.25;2.20;;;;;;;9.85;76.86;100260.19;6208427;23;20513;-73
2022/01/03 13:51:22;;;;;;;13.27;2.95;;;;;;;9.93;76.02;100237.97;6208320;23;20098;-74
2022/01/03 13:54:28;;;;;;;;;;;;;;;9.84;76.90;100238.47;6190058;23;20087;-73
2022/01/03 13:57:36;;;;;;;17.23;3.25;;;;;;;9.93;75.97;100229.31;6208294;23;19915;-74
2022/01/03 14:00:48;;;;;;;16.13;4.50;;;;;;;9.90;76.26;100238.16;6206744;23;20059;-73
2022/01/03 14:03:55;;;;;;;10.35;2.30;;;;;;;9.80;76.67;100236.97;6208330;23;20140;-72
2022/01/03 14:07:12;;;;;;;11.43;2.30;;;;;;;9.81;76.85;100235.19;6207848;23;20462;-74
2022/01/03 14:10:15;;;;;;;16.85;3.30;;;;;;;9.75;75.51;100228.50;6208048;23;20031;-73
2022/01/03 14:13:23;;;;;;;12.23;2.05;;;;;;;9.73;76.42;100225.13;6208602;23;20028;-74
2022/01/03 14:16:27;;;;;;;16.15;3.88;;;;;;;9.77;76.41;100213.63;6207059;23;20027;-74
2022/01/03 14:19:31;;;;;;;17.55;2.65;;;;;;;9.70;76.43;100217.47;6206656;23;20028;-74
2022/01/03 14:22:35;;;;;;;;;;;;;;;9.70;76.32;100220.06;6207190;23;20078;-73
2022/01/03 14:25:39;;;;;;;11.60;2.15;;;;;;;9.69;75.28;100215.78;6207548;23;19950;-74
2022/01/03 14:28:42;;;;;;;32.28;24.92;;;;;;;9.66;75.44;100206.34;6186798;23;20798;-73
2022/01/03 14:31:57;;;;;;;10.05;2.90;;;;;;;9.64;75.72;100208.22;6206189;23;20118;-73
2022/01/03 14:35:00;;;;;;;12.60;4.25;;;;;;;9.69;75.75;100210.56;6207708;23;20090;-74
2022/01/03 14:38:11;;;;;;;11.55;3.03;;;;;;;9.63;75.38;100208.28;6170998;23;20234;-74
2022/01/03 14:41:23;;;;;;;14.00;4.38;;;;;;;9.61;76.43;100199.72;6207480;23;20089;-73
2022/01/03 14:44:28;;;;;;;13.67;7.03;;;;;;;9.63;77.23;100200.44;6206800;23;20489;-73
2022/01/03 14:47:31;;;;;;;15.05;6.75;;;;;;;9.56;77.32;100186.88;6207025;23;20032;-75
2022/01/03 14:50:35;;;;;;;;;;;;;;;9.54;77.57;100194.81;6207309;23;20035;-74
2022/01/03 14:53:39;;;;;;;9.80;4.00;;;;;;;9.54;78.39;100196.59;6187335;23;20141;-73
2022/01/03 14:56:43;;;;;;;;;;;;;;;9.50;79.64;100193.28;6207480;23;20075;-72
2022/01/03 14:59:46;;;;;;;32.35;14.85;;;;;;;9.51;80.86;100194.97;6207563;23;20253;-73
2022/01/03 15:02:49;;;;;;;22.05;10.55;;;;;;;9.43;82.52;100193.69;6207675;23;20229;-74
2022/01/03 15:05:53;;;;;;;17.65;8.10;;;;;;;9.32;84.06;100176.00;6205360;23;20051;-73
2022/01/03 15:08:57;;;;;;;11.82;4.60;;;;;;;9.15;84.38;100176.00;6205521;23;20032;-73
2022/01/03 15:12:00;;;;;;;13.38;5.10;;;;;;;9.29;83.92;100170.94;6204957;23;20104;-74
2022/01/03 15:15:04;;;;;;;;;;;;;;;9.25;83.81;100167.66;6206326;23;20031;-73
2022/01/03 15:18:07;;;;;;;12.00;3.55;;;;;;;9.47;83.91;100167.31;6184577;23;19915;-74
2022/01/03 15:21:10;;;;;;;9.65;2.55;;;;;;;9.34;85.59;100168.91;6205025;23;20114;-74
2022/01/03 15:24:14;;;;;;;8.40;1.70;;;;;;;9.41;85.51;100162.47;6205998;23;20070;-73
2022/01/03 15:27:18;;;;;;;11.43;2.92;;;;;;;9.43;86.00;100160.59;6205549;23;20059;-73
2022/01/03 15:30:27;;;;;;;9.40;2.70;;;;;;;9.47;85.93;100151.66;6207880;23;20028;-73
2022/01/03 15:33:30;;;;;;;11.88;2.03;;;;;;;9.54;86.26;100147.84;6208372;23;20091;-73
2022/01/03 15:36:34;;;;;;;13.65;2.10;;;;;;;9.62;86.08;100149.19;6211310;23;20027;-73
2022/01/03 15:39:37;;;;;;;7.78;2.95;;;;;;;9.55;85.66;100149.50;6210855;23;20492;-73
2022/01/03 15:42:41;;;;;;;9.95;3.55;;;;;;;9.35;86.96;100136.69;6209643;23;20024;-74
2022/01/03 15:45:45;;;;;;;13.43;2.60;;;;;;;9.21;87.73;100133.97;6209707;23;20766;-73
2022/01/03 15:48:48;;;;;;;14.10;3.47;;;;;;;9.31;87.71;100129.94;6209845;23;20024;-74
2022/01/03 15:51:51;;;;;;;13.85;6.32;;;;;;;9.17;88.54;100132.44;6209899;23;20031;-74
2022/01/03 15:54:55;;;;;;;19.27;9.30;;;;;;;9.24;88.24;100129.41;6209984;23;20028;-74
2022/01/03 15:57:59;;;;;;;17.75;6.65;;;;;;;9.37;87.66;100128.78;6211282;23;20546;-74
2022/01/03 16:01:01;;;;;;;;;;;;;;;9.39;87.57;100133.00;6210955;23;20477;-74
2022/01/03 16:04:06;;;;;;;6.00;2.20;;;;;;;9.20;88.43;100129.69;6210446;23;19914;-74
2022/01/03 16:07:09;;;;;;;10.43;2.67;;;;;;;9.27;88.28;100124.03;6210248;23;20075;-75
2022/01/03 16:10:12;;;;;;;10.77;2.20;;;;;;;9.26;88.24;100117.16;6209719;23;20031;-72
2022/01/03 16:13:16;;;;;;;;;;;;;;;9.29;88.30;100111.78;6211752;23;20106;-73
2022/01/03 16:16:19;;;;;;;18.55;6.35;;;;;;;9.22;86.87;100104.34;6210677;23;19918;-73
2022/01/03 16:19:23;;;;;;;20.83;5.55;;;;;;;9.16;85.21;100089.03;6210366;23;20480;-73
2022/01/03 16:22:26;;;;;;;;;;;;;;;9.15;84.69;100084.72;6210919;23;20024;-74
2022/01/03 16:25:29;;;;;;;12.32;2.33;;;;;;;9.28;82.60;100062.25;6210160;23;19914;-74
2022/01/03 16:28:32;;;;;;;;;;;;;;;9.29;83.22;100050.94;6210546;23;20032;-74
2022/01/03 16:31:38;;;;;;;11.50;2.67;;;;;;;9.30;83.09;100065.66;6209019;23;19973;-74
2022/01/03 16:34:41;;;;;;;13.65;4.03;;;;;;;9.23;82.88;100067.75;6208795;23;20075;-73
2022/01/03 16:37:45;;;;;;;7.75;2.10;;;;;;;9.27;81.58;100068.41;6209424;23;20092;-73
2022/01/03 16:40:51;;;;;;;7.93;2.10;;;;;;;9.33;81.29;100075.91;6209171;23;20468;-73
2022/01/03 16:43:55;;;;;;;12.10;3.28;;;;;;;9.36;80.32;100065.31;6208699;23;20069;-73
2022/01/03 16:46:58;;;;;;;10.52;3.03;;;;;;;9.38;79.80;100058.25;6204834;23;20027;-74
2022/01/03 16:50:05;;;;;;;12.32;4.13;;;;;;;9.38;79.86;100055.66;6187462;23;20130;-74
2022/01/03 16:53:09;;;;;;;14.73;4.63;;;;;;;9.41;80.73;100058.09;6208085;23;20032;-74
2022/01/03 16:56:13;;;;;;;12.93;2.80;;;;;;;9.41;79.13;100042.44;6208716;23;20317;-73
2022/01/03 16:59:16;;;;;;;11.07;3.13;;;;;;;9.42;79.45;100059.75;6208049;23;20048;-74
2022/01/03 17:02:21;;;;;;;9.40;4.20;;;;;;;9.43;78.76;100040.56;6208185;23;20075;-74
2022/01/03 17:05:26;;;;;;;13.27;3.13;;;;;;;9.41;78.49;100032.00;6207737;23;20356;-74
2022/01/03 17:08:29;;;;;;;8.48;1.88;;;;;;;9.44;77.81;100031.78;6206830;23;20027;-74
2022/01/03 17:11:33;;;;;;;;;;;;;;;9.47;78.33;100031.63;6206362;23;20031;-74
2022/01/03 17:14:39;;;;;;;12.63;4.85;;;;;;;9.43;78.61;100019.69;6206513;23;19970;-74
2022/01/03 17:17:44;;;;;;;7.78;2.78;;;;;;;9.41;78.02;100015.47;6207541;23;20386;-73
2022/01/03 17:20:47;;;;;;;10.10;3.03;;;;;;;9.49;78.06;100015.91;6207759;23;20027;-74
2022/01/03 17:23:54;;;;;;;;;;;;;;;9.48;77.44;100022.88;6208244;23;20019;-74
2022/01/03 17:26:58;;;;;;;8.35;2.60;;;;;;;9.49;77.97;100008.91;6207608;23;19927;-73
2022/01/03 17:30:01;;;;;;;;;;;;;;;9.51;77.98;99991.41;6207645;23;20027;-73
2022/01/03 17:33:04;;;;;;;12.23;4.38;;;;;;;9.47;79.40;99995.09;6203064;23;19915;-73
2022/01/03 17:36:09;;;;;;;9.38;2.70;;;;;;;9.37;80.11;99999.16;6207698;23;20417;-74
2022/01/03 17:39:13;;;;;;;10.57;3.20;;;;;;;9.41;78.98;99994.59;6208571;23;20164;-74
2022/01/03 17:42:18;;;;;;;12.35;5.63;;;;;;;9.58;79.42;99985.84;6206875;23;20480;-72
2022/01/03 17:45:24;;;;;;;9.13;4.20;;;;;;;9.43;80.40;99985.75;6206204;23;20032;-71
2022/01/03 17:48:31;;;;;;;9.15;3.53;;;;;;;9.34;80.53;99988.88;6206635;23;20031;-73
2022/01/03 17:51:34;;;;;;;7.10;1.58;;;;;;;9.44;79.44;99984.81;6206344;23;20488;-73
2022/01/03 17:54:38;;;;;;;8.85;2.10;;;;;;;9.45;79.19;99988.31;6207273;23;20063;-72
2022/01/03 17:57:41;;;;;;;8.27;1.90;;;;;;;9.46;79.63;99987.34;6207743;23;20023;-72
2022/01/03 18:00:45;;;;;;;14.68;4.63;;;;;;;9.41;79.54;99998.06;6207040;23;20086;-73
2022/01/03 18:03:48;;;;;;;9.27;3.65;;;;;;;9.55;78.93;99982.47;6206166;23;20024;-73
2022/01/03 18:06:52;;;;;;;7.20;2.33;;;;;;;9.58;79.33;99980.63;6206087;23;20027;-73
2022/01/03 18:09:55;;;;;;;5.93;2.88;;;;;;;9.52;80.04;99966.13;6204910;23;20027;-73
2022/01/03 18:13:02;;;;;;;8.35;1.85;;;;;;;9.54;82.55;99974.72;6206403;23;20043;-73
2022/01/03 18:16:05;;;;;;;12.50;2.25;;;;;;;9.63;81.94;99953.31;6205911;23;20383;-72
2022/01/03 18:19:09;;;;;;;6.80;1.88;;;;;;;9.63;81.26;99962.91;6205475;23;20071;-73
2022/01/03 18:22:13;;;;;;;9.07;2.20;;;;;;;9.54;79.66;99953.84;6205793;23;20035;-73
2022/01/03 18:25:16;;;;;;;;;;;;;;;9.56;80.03;99954.59;6207001;23;20386;-73
2022/01/03 18:28:19;;;;;;;5.80;1.52;;;;;;;9.64;79.77;99947.19;6207950;23;19966;-74
2022/01/03 18:31:23;;;;;;;7.93;2.13;;;;;;;9.82;79.56;99950.47;6207547;23;20071;-73
2022/01/03 18:34:26;;;;;;;9.10;1.63;;;;;;;9.75;81.38;99951.75;6207997;23;20086;-73
2022/01/03 18:37:30;;;;;;;10.35;2.70;;;;;;;9.85;81.39;99946.84;6207233;23;20035;-74
2022/01/03 18:40:35;;;;;;;6.78;2.58;;;;;;;9.76;81.09;99940.38;6207339;23;20031;-74
2022/01/03 18:43:39;;;;;;;19.65;9.82;;;;;;;9.63;81.15;99936.81;6207505;23;20023;-74
2022/01/03 18:46:43;;;;;;;7.65;2.70;;;;;;;9.50;83.26;99927.06;6207224;23;20534;-73
2022/01/03 18:49:46;;;;;;;13.45;6.75;;;;;;;9.44;84.76;99927.41;6208515;23;20092;-74
2022/01/03 18:52:49;;;;;;;;;;;;;;;9.58;84.12;99929.25;6208660;23;20027;-73
2022/01/03 18:55:53;;;;;;;11.70;2.28;;;;;;;9.70;84.10;99917.25;6188085;23;19921;-74
2022/01/03 18:58:56;;;;;;;8.02;2.80;;;;;;;9.68;83.98;99913.91;6205017;23;20087;-73
2022/01/03 19:02:00;;;;;;;11.00;5.93;;;;;;;9.66;84.02;99913.13;6204089;23;20358;-74
2022/01/03 19:05:04;;;;;;;8.18;3.75;;;;;;;9.63;84.57;99908.94;6208004;23;20253;-74
2022/01/03 19:08:08;;;;;;;14.77;4.13;;;;;;;9.47;85.04;99905.53;6207952;23;20028;-73
2022/01/03 19:11:11;;;;;;;6.72;2.00;;;;;;;9.40;86.21;99894.59;6209213;23;20031;-74
2022/01/03 19:14:15;;;;;;;11.77;3.72;;;;;;;9.30;86.59;99903.88;6209340;23;20100;-73
2022/01/03 19:17:18;;;;;;;10.88;3.95;;;;;;;9.43;86.15;99893.59;6208385;23;20036;-74
2022/01/03 19:20:24;;;;;;;9.45;3.47;;;;;;;9.31;86.98;99888.13;6208445;23;20527;-74
2022/01/03 19:23:29;;;;;;;8.77;2.45;;;;;;;9.17;87.81;99900.31;6209665;23;20414;-73
2022/01/03 19:26:32;;;;;;;12.63;3.28;;;;;;;9.17;87.98;99890.69;6209892;23;20363;-73
2022/01/03 19:29:35;;;;;;;;;;;;;;;9.04;88.81;99907.97;6210145;23;20484;-74
2022/01/03 19:32:54;;;;;;;9.85;2.55;;;;;;;9.19;88.27;99880.16;6209401;23;19914;-73
2022/01/03 19:39:24;;;;;;;9.13;2.38;;;;;;;9.19;87.94;99869.72;6208941;23;20547;-73
2022/01/03 19:42:28;;;;;;;5.68;1.20;;;;;;;9.22;88.49;99873.03;6208303;23;20030;-73
2022/01/03 19:45:32;;;;;;;7.63;2.30;;;;;;;9.13;89.04;99864.91;6209186;23;20397;-74
2022/01/03 19:48:36;;;;;;;9.45;2.55;;;;;;;9.01;89.95;99861.19;6191430;23;20031;-73
2022/01/03 19:51:40;;;;;;;;;;;;;;;8.81;91.21;99863.16;6210415;23;20481;-73
2022/01/03 19:54:43;;;;;;;8.25;1.17;;;;;;;8.96;90.45;99858.84;6209276;23;19983;-73
2022/01/03 19:57:47;;;;;;;5.13;1.30;;;;;;;8.98;90.60;99857.00;6208269;23;20035;-73
2022/01/03 20:00:50;;;;;;;;;;;;;;;8.75;91.24;99849.63;6209231;23;20047;-73
2022/01/03 20:03:53;;;;;;;7.60;1.67;;;;;;;8.95;91.12;99851.94;6209156;23;19915;-74
2022/01/03 20:06:57;;;;;;;7.97;1.60;;;;;;;8.91;91.01;99845.22;6209578;23;20023;-74
2022/01/03 20:10:02;;;;;;;5.63;1.25;;;;;;;9.04;90.50;99843.63;6190457;23;20560;-73
2022/01/03 20:13:06;;;;;;;4.85;1.00;;;;;;;9.11;89.97;99844.09;6207544;23;20027;-73
2022/01/03 20:16:09;;;;;;;6.07;1.25;;;;;;;9.10;88.10;99832.00;6207292;23;20042;-73
2022/01/03 20:19:13;;;;;;;7.82;1.50;;;;;;;9.11;90.28;99833.66;6207728;23;20032;-74
2022/01/03 20:22:19;;;;;;;9.07;3.38;;;;;;;9.08;90.69;99826.03;6207038;23;20028;-74
2022/01/03 20:25:22;;;;;;;12.93;7.10;;;;;;;9.20;90.46;99827.94;6208133;23;20770;-74
2022/01/03 20:28:25;;;;;;;;;;;;;;;9.32;89.90;99829.84;6208690;23;20059;-74
2022/01/03 20:31:29;;;;;;;7.40;2.20;;;;;;;9.36;89.63;99825.28;6206845;23;19986;-74
2022/01/03 20:34:33;;;;;;;5.82;1.80;;;;;;;9.44;89.12;99830.88;6187928;23;20055;-73
2022/01/03 20:37:37;;;;;;;6.78;2.47;;;;;;;9.47;88.88;99822.03;6197617;23;20035;-74
2022/01/03 20:40:40;;;;;;;9.07;3.80;;;;;;;9.50;89.04;99811.41;6194211;23;20043;-74
2022/01/03 20:43:43;;;;;;;;;;;;;;;9.50;88.81;99796.56;6197503;23;20366;-74
2022/01/03 20:46:49;;;;;;;6.35;1.10;;;;;;;9.47;89.11;99801.16;6196279;23;19974;-74
2022/01/03 20:49:57;;;;;;;5.43;1.85;;;;;;;9.44;89.17;99802.16;6190315;23;20027;-74
2022/01/03 20:53:01;;;;;;;3.67;1.15;;;;;;;9.27;90.38;99802.31;6207821;23;20032;-74
2022/01/03 20:56:04;;;;;;;4.50;1.00;;;;;;;9.32;90.00;99789.88;6207033;23;20057;-74